Time;durP1;ratioP1;P1;durP2;ratioP2;P2;SDS_P1;SDS_P2;PMS_P1;PMS_P2;Temp;Humidity;BMP_temperature;BMP_pressure;BME280_temperature;BME280_humidity;BME280_pressure;Samples;Min_cycle;Max_cycle;Signal;HPM_P1;HPM_P2
2021/06/24 06:36:32;;;;;;;4.17;3.67;;;25.80;75.30;;;;;;5186874;23;20482;-91
2021/06/24 06:38:59;;;;;;;3.73;3.30;;;25.80;75.40;;;;;;4997659;28;20998;-94
2021/06/24 06:41:26;;;;;;;7.80;6.30;;;25.80;75.20;;;;;;4997710;28;21023;-92
2021/06/24 06:43:55;;;;;;;8.00;6.93;;;25.70;74.70;;;;;;4997219;28;20554;-92
2021/06/24 06:46:22;;;;;;;7.90;6.90;;;25.70;74.10;;;;;;4996573;28;20470;-92
2021/06/24 06:48:50;;;;;;;8.00;5.80;;;25.60;73.90;;;;;;4997465;28;20486;-92
2021/06/24 06:51:18;;;;;;;10.73;5.53;;;25.60;74.20;;;;;;4996901;28;20908;-91
2021/06/24 06:53:46;;;;;;;6.20;4.90;;;25.60;74.50;;;;;;4998539;28;20462;-94
2021/06/24 06:56:15;;;;;;;5.80;4.17;;;25.60;74.70;;;;;;4998117;28;20444;-95
2021/06/24 06:58:43;;;;;;;6.40;3.70;;;25.60;74.80;;;;;;4982386;28;20481;-93
2021/06/24 07:04:15;;;;;;;8.00;6.73;;;25.70;74.60;;;;;;4992937;28;20446;-89
2021/06/24 07:06:43;;;;;;;7.53;6.80;;;25.70;73.90;;;;;;4997709;28;20492;-96
2021/06/24 07:16:58;;;;;;;13.13;7.97;;;25.50;73.90;;;;;;1134730;23;20751;-89
2021/06/24 07:19:30;;;;;;;9.17;5.97;;;25.60;74.10;;;;;;4998943;28;20519;-96
2021/06/24 07:21:57;;;;;;;10.73;5.37;;;25.50;74.20;;;;;;4979897;28;20452;-96
2021/06/24 07:24:25;;;;;;;5.03;4.60;;;25.50;74.30;;;;;;4995083;28;20539;-89
2021/06/24 07:26:52;;;;;;;7.90;4.63;;;25.50;74.30;;;;;;4994523;28;21025;-89
2021/06/24 07:29:19;;;;;;;7.10;6.23;;;25.60;74.50;;;;;;4994858;28;20527;-90
2021/06/24 07:31:46;;;;;;;8.47;5.63;;;25.60;74.50;;;;;;4995114;28;20769;-90
2021/06/24 07:34:14;;;;;;;9.20;6.50;;;25.60;74.60;;;;;;4994886;28;20647;-89
2021/06/24 07:36:41;;;;;;;8.40;7.00;;;25.70;74.70;;;;;;4994554;28;20451;-87
2021/06/24 07:39:08;;;;;;;10.83;7.10;;;25.70;74.70;;;;;;4994715;28;20450;-87
2021/06/24 07:41:34;;;;;;;7.30;6.00;;;25.70;74.70;;;;;;4994433;28;20455;-86
2021/06/24 07:44:01;;;;;;;9.50;7.43;;;25.70;74.60;;;;;;4994322;28;20467;-86
2021/06/24 07:46:28;;;;;;;10.00;7.50;;;25.70;74.70;;;;;;4994586;28;20488;-86
2021/06/24 07:48:55;;;;;;;8.67;7.23;;;25.70;74.90;;;;;;4994359;28;20858;-87
2021/06/24 07:51:23;;;;;;;8.20;7.50;;;25.70;74.70;;;;;;4994584;28;20532;-91
2021/06/24 07:53:50;;;;;;;7.20;6.50;;;25.70;74.90;;;;;;4994818;28;20458;-91
2021/06/24 07:56:17;;;;;;;10.57;7.37;;;25.80;75.30;;;;;;4994515;28;20479;-89
2021/06/24 07:58:46;;;;;;;8.83;6.60;;;25.80;75.20;;;;;;4994408;28;20500;-88
2021/06/24 08:01:13;;;;;;;8.60;7.43;;;25.80;75.10;;;;;;4994168;28;20839;-87
2021/06/24 08:03:40;;;;;;;15.00;8.00;;;25.80;74.90;;;;;;4994388;28;20453;-87
2021/06/24 08:06:07;;;;;;;10.27;8.03;;;25.80;74.90;;;;;;4994470;28;20512;-90
2021/06/24 08:08:35;;;;;;;10.73;7.70;;;25.80;74.90;;;;;;4993641;28;20443;-89
2021/06/24 08:11:02;;;;;;;8.83;6.90;;;25.80;75.00;;;;;;4993795;28;20458;-89
2021/06/24 08:13:29;;;;;;;13.40;6.90;;;25.80;75.00;;;;;;4994163;28;20467;-88
2021/06/24 08:15:57;;;;;;;8.00;7.20;;;25.80;75.00;;;;;;4994411;28;20440;-86
2021/06/24 08:18:25;;;;;;;8.40;7.60;;;25.80;75.10;;;;;;4934787;28;1331709;-88
2021/06/24 08:20:52;;;;;;;11.73;7.83;;;25.80;75.20;;;;;;4975557;28;20701;-88
2021/06/24 08:23:20;;;;;;;8.50;7.10;;;25.80;74.80;;;;;;4975374;28;20441;-90
2021/06/24 08:25:48;;;;;;;7.67;6.83;;;25.80;75.00;;;;;;4975499;28;20625;-87
2021/06/24 08:28:16;;;;;;;9.50;7.20;;;25.80;75.30;;;;;;4975066;28;20497;-90
2021/06/24 08:30:44;;;;;;;8.10;6.73;;;25.80;75.00;;;;;;4975970;28;20546;-90
2021/06/24 08:33:12;;;;;;;7.53;6.93;;;25.80;75.10;;;;;;4975708;28;20454;-87
2021/06/24 08:35:39;;;;;;;11.07;7.23;;;25.80;75.20;;;;;;4975612;28;20445;-95
2021/06/24 08:38:06;;;;;;;7.90;6.57;;;25.80;75.30;;;;;;4975051;28;20476;-88
2021/06/24 08:40:33;;;;;;;9.23;7.60;;;25.80;75.50;;;;;;4974990;28;20457;-89
2021/06/24 08:43:02;;;;;;;5.50;5.00;;;25.80;75.30;;;;;;4974842;28;20908;-90
2021/06/24 08:45:29;;;;;;;5.47;5.07;;;25.80;75.30;;;;;;4975159;28;20480;-87
2021/06/24 08:48:00;;;;;;;7.73;6.60;;;25.80;75.30;;;;;;4974600;28;21009;-89
2021/06/24 08:50:27;;;;;;;5.40;4.90;;;25.80;75.20;;;;;;4975416;28;20788;-90
2021/06/24 08:52:55;;;;;;;7.10;5.10;;;25.80;75.20;;;;;;4975452;28;20544;-90
2021/06/24 08:55:22;;;;;;;5.53;5.10;;;25.80;75.40;;;;;;4975431;28;20449;-92
2021/06/24 08:57:50;;;;;;;6.17;5.73;;;25.90;75.30;;;;;;4975882;28;20442;-92
2021/06/24 09:00:19;;;;;;;5.63;5.07;;;25.90;75.50;;;;;;4976143;28;20483;-89
2021/06/24 09:02:47;;;;;;;6.70;6.00;;;25.90;75.30;;;;;;4986503;28;20468;-89
2021/06/24 09:05:15;;;;;;;5.23;4.30;;;25.90;75.30;;;;;;4983973;28;20523;-88
2021/06/24 09:07:49;;;;;;;9.47;8.40;;;25.90;75.40;;;;;;4975240;28;20595;-90
2021/06/24 09:10:16;;;;;;;12.03;7.90;;;25.90;75.10;;;;;;4975374;28;21023;-88
2021/06/24 09:12:51;;;;;;;8.47;6.93;;;25.90;75.20;;;;;;4975217;28;20496;-90
2021/06/24 09:15:20;;;;;;;7.70;6.13;;;25.90;75.30;;;;;;4975740;28;20448;-88
2021/06/24 09:17:47;;;;;;;6.27;5.67;;;25.90;75.30;;;;;;4958994;28;20474;-87
2021/06/24 09:20:34;;;;;;;6.17;5.30;;;25.90;75.30;;;;;;4976798;28;20449;-90
2021/06/24 09:23:10;;;;;;;8.53;5.97;;;26.00;76.20;;;;;;4978488;28;20797;-89
2021/06/24 09:25:39;;;;;;;8.43;5.50;;;26.00;75.70;;;;;;4978849;28;20448;-89
2021/06/24 09:28:06;;;;;;;6.43;5.13;;;25.90;75.20;;;;;;4978084;28;20579;-89
2021/06/24 09:30:36;;;;;;;4.87;4.57;;;26.00;75.30;;;;;;4978273;28;20439;-88
2021/06/24 09:33:08;;;;;;;5.90;5.30;;;26.00;75.30;;;;;;4978108;28;20929;-88
2021/06/24 09:35:35;;;;;;;9.80;8.37;;;26.00;75.50;;;;;;4978264;28;20488;-88
2021/06/24 09:40:47;;;;;;;27.07;14.10;;;26.00;75.70;;;;;;4977738;28;20445;-89
2021/06/24 09:43:16;;;;;;;29.97;14.37;;;26.00;76.10;;;;;;4977870;28;20839;-87
2021/06/24 09:46:06;;;;;;;46.10;17.80;;;26.10;76.10;;;;;;4978256;28;20437;-87
2021/06/24 09:48:39;;;;;;;31.80;15.70;;;26.10;76.00;;;;;;4990121;28;20563;-96
2021/06/24 09:53:51;;;;;;;26.97;13.20;;;26.10;76.10;;;;;;4980461;28;20439;-96
2021/06/24 09:56:23;;;;;;;26.80;13.83;;;26.10;76.20;;;;;;4986584;28;20448;-96
2021/06/24 09:58:50;;;;;;;18.50;12.67;;;26.10;76.30;;;;;;4980344;28;20465;-96
2021/06/24 10:01:30;;;;;;;19.73;11.87;;;26.10;76.40;;;;;;4980395;28;20485;-96
2021/06/24 10:03:58;;;;;;;24.83;12.97;;;26.10;76.20;;;;;;4981610;28;20935;-96
2021/06/24 10:06:26;;;;;;;26.07;11.67;;;26.10;76.40;;;;;;4979869;28;20449;-96
2021/06/24 10:08:53;;;;;;;23.57;11.23;;;26.10;76.30;;;;;;4980211;28;20488;-96
2021/06/24 10:11:22;;;;;;;23.20;12.47;;;26.10;76.30;;;;;;4979205;28;21033;-96
2021/06/24 10:13:50;;;;;;;20.40;11.53;;;26.10;76.40;;;;;;4978715;28;20440;-96
2021/06/24 10:16:18;;;;;;;21.30;11.80;;;26.10;76.30;;;;;;4979556;28;20999;-96
2021/06/24 10:18:48;;;;;;;27.20;11.53;;;26.20;76.40;;;;;;4978687;28;20503;-95
2021/06/24 10:21:16;;;;;;;24.10;12.37;;;26.20;76.40;;;;;;4980292;28;20440;-96
2021/06/24 10:23:54;;;;;;;23.13;11.60;;;26.20;76.40;;;;;;4978423;28;21004;-96
2021/06/24 10:26:22;;;;;;;19.30;12.67;;;26.20;76.30;;;;;;4979649;28;20508;-95
2021/06/24 10:28:49;;;;;;;21.33;12.10;;;26.20;76.30;;;;;;4988501;28;20492;-96
2021/06/24 10:31:36;;;;;;;20.47;11.67;;;26.30;76.40;;;;;;4980713;28;20884;-96
2021/06/24 10:34:05;;;;;;;18.93;11.23;;;26.30;76.40;;;;;;4978463;28;20457;-96
2021/06/24 10:36:32;;;;;;;17.43;10.30;;;26.30;76.50;;;;;;4984127;28;20460;-96
2021/06/24 10:39:00;;;;;;;17.20;10.17;;;26.30;76.40;;;;;;4978639;28;20459;-96
2021/06/24 10:41:32;;;;;;;17.13;10.30;;;26.30;76.40;;;;;;4979234;28;20452;-96
2021/06/24 10:43:59;;;;;;;17.83;10.33;;;26.40;76.40;;;;;;4979468;28;20446;-96
2021/06/24 10:46:26;;;;;;;14.90;9.83;;;26.30;76.30;;;;;;4978600;28;20480;-95
2021/06/24 10:48:53;;;;;;;19.93;10.20;;;26.30;76.30;;;;;;4977694;28;20521;-96
2021/06/24 10:51:34;;;;;;;16.67;9.20;;;26.30;76.30;;;;;;4977970;28;20952;-96
2021/06/24 10:54:00;;;;;;;22.10;10.57;;;26.40;76.40;;;;;;4978223;28;20437;-96
2021/06/24 10:56:45;;;;;;;18.83;9.60;;;26.40;76.40;;;;;;4985572;28;20461;-96
2021/06/24 10:59:33;;;;;;;19.20;9.97;;;26.40;76.30;;;;;;5001550;28;20538;-95
2021/06/24 11:02:21;;;;;;;15.47;9.37;;;26.30;76.20;;;;;;5001377;28;20437;-96
2021/06/24 11:04:48;;;;;;;16.77;9.00;;;26.30;76.20;;;;;;5009647;23;20499;-96
2021/06/24 11:07:25;;;;;;;15.90;8.60;;;26.40;76.30;;;;;;4980753;28;20476;-96
2021/06/24 11:10:26;;;;;;;14.20;9.43;;;26.40;76.30;;;;;;4978254;28;20484;-95
2021/06/24 11:13:05;;;;;;;18.10;9.67;;;26.40;76.30;;;;;;4964936;28;20528;-95
2021/06/24 11:15:53;;;;;;;18.40;9.40;;;26.40;76.40;;;;;;4958948;29;20460;-96
2021/06/24 11:18:46;;;;;;;18.03;9.00;;;26.40;76.30;;;;;;4958403;29;20451;-96
2021/06/24 11:21:15;;;;;;;16.80;8.47;;;26.40;76.40;;;;;;4934434;29;20534;-96
2021/06/24 11:23:49;;;;;;;12.47;8.47;;;26.40;76.40;;;;;;4958865;29;20549;-95
2021/06/24 11:26:18;;;;;;;16.20;8.30;;;26.40;76.40;;;;;;4959749;29;20434;-95
2021/06/24 11:28:48;;;;;;;10.20;8.50;;;26.40;76.40;;;;;;4959812;29;20482;-95
2021/06/24 11:31:16;;;;;;;15.60;9.03;;;26.40;76.50;;;;;;4958484;29;20522;-95
2021/06/24 11:33:57;;;;;;;11.33;8.07;;;26.40;76.30;;;;;;4958398;29;20541;-95
2021/06/24 11:36:24;;;;;;;17.27;7.90;;;26.40;76.30;;;;;;4959180;29;20516;-95
2021/06/24 11:38:52;;;;;;;12.60;7.70;;;26.40;76.40;;;;;;4959057;29;20525;-95
2021/06/24 11:41:21;;;;;;;13.63;7.60;;;26.40;76.40;;;;;;4958351;28;20463;-95
2021/06/24 11:43:58;;;;;;;13.53;8.23;;;26.40;76.40;;;;;;4958041;28;20549;-95
2021/06/24 11:46:25;;;;;;;14.53;8.27;;;26.40;76.50;;;;;;4958971;29;20452;-96
2021/06/24 11:49:04;;;;;;;15.77;8.20;;;26.40;76.50;;;;;;4958308;29;20496;-96
2021/06/24 12:05:21;;;;;;;12.83;8.27;;;26.40;76.60;;;;;;4957901;29;20479;-92
2021/06/24 12:07:48;;;;;;;12.50;7.30;;;26.40;76.60;;;;;;4956770;29;20485;-92
2021/06/24 12:10:24;;;;;;;5.90;4.63;;;26.40;75.70;;;;;;4956707;29;20532;-92
2021/06/24 12:12:51;;;;;;;7.60;5.40;;;26.40;74.50;;;;;;4957075;28;20484;-94
2021/06/24 12:15:18;;;;;;;7.10;4.67;;;26.40;73.70;;;;;;4957471;29;20469;-94
2021/06/24 12:17:45;;;;;;;5.90;5.00;;;26.40;73.60;;;;;;4959504;29;20456;-96
2021/06/24 12:20:15;;;;;;;9.87;4.77;;;26.40;74.20;;;;;;4963461;29;20938;-96
2021/06/24 12:22:49;;;;;;;7.80;5.07;;;26.40;74.30;;;;;;4958356;29;20486;-96
2021/06/24 12:25:21;;;;;;;6.80;4.40;;;26.40;74.40;;;;;;4958702;29;20521;-96
2021/06/24 12:27:54;;;;;;;4.20;3.80;;;26.40;74.40;;;;;;4958752;29;20481;-96
2021/06/24 12:30:23;;;;;;;4.53;3.73;;;26.40;74.50;;;;;;4958870;29;20447;-96
2021/06/24 12:32:53;;;;;;;5.50;4.53;;;26.40;74.50;;;;;;4956844;29;20988;-96
2021/06/24 12:35:28;;;;;;;5.43;3.57;;;26.40;75.40;;;;;;4959291;29;20462;-95
2021/06/24 12:37:57;;;;;;;7.73;3.63;;;26.40;75.40;;;;;;4958415;29;20479;-96
2021/06/24 12:40:27;;;;;;;8.40;3.67;;;26.40;74.70;;;;;;4960870;29;20537;-96
2021/06/24 12:42:58;;;;;;;6.33;3.27;;;26.40;74.70;;;;;;4960528;28;20500;-95
2021/06/24 12:45:27;;;;;;;3.80;3.50;;;26.40;74.70;;;;;;4980392;28;20447;-96
2021/06/24 12:47:56;;;;;;;4.80;3.27;;;26.40;74.80;;;;;;4978879;28;20480;-95
2021/06/24 12:50:28;;;;;;;4.87;3.17;;;26.40;74.80;;;;;;4959488;29;20446;-96
2021/06/24 12:52:59;;;;;;;7.30;3.67;;;26.40;74.80;;;;;;4956917;29;20494;-96
2021/06/24 12:55:52;;;;;;;3.53;2.90;;;26.40;74.90;;;;;;4956201;29;20505;-90
2021/06/24 12:58:33;;;;;;;6.73;3.73;;;26.40;75.00;;;;;;4956857;29;20446;-96
2021/06/24 13:01:09;;;;;;;4.80;3.53;;;26.40;74.70;;;;;;4957029;29;20974;-96
2021/06/24 13:03:51;;;;;;;5.50;3.70;;;26.40;74.80;;;;;;4956312;29;20441;-96
2021/06/24 13:06:23;;;;;;;4.73;3.37;;;26.40;74.70;;;;;;4954500;29;20867;-96
2021/06/24 13:09:02;;;;;;;3.30;2.77;;;26.40;74.90;;;;;;4956754;29;20565;-96
2021/06/24 13:11:32;;;;;;;4.13;3.33;;;26.40;74.90;;;;;;4956480;28;20524;-96
2021/06/24 13:14:03;;;;;;;3.23;2.90;;;26.40;74.90;;;;;;4956427;29;20446;-96
2021/06/24 13:16:36;;;;;;;4.40;3.83;;;26.40;74.90;;;;;;4956766;29;20422;-96
2021/06/24 13:19:06;;;;;;;4.07;2.73;;;26.40;75.00;;;;;;4956815;29;20513;-96
2021/06/24 13:21:33;;;;;;;4.03;3.03;;;26.40;75.00;;;;;;4956678;29;20541;-96
2021/06/24 13:24:08;;;;;;;4.63;3.30;;;26.40;75.00;;;;;;4956131;29;20449;-96
2021/06/24 13:26:35;;;;;;;3.23;2.93;;;26.40;75.10;;;;;;4956210;29;20473;-96
2021/06/24 13:29:04;;;;;;;3.80;3.50;;;26.50;75.10;;;;;;4956299;29;20495;-96
2021/06/24 13:31:32;;;;;;;2.80;2.30;;;26.50;75.20;;;;;;4956008;29;20532;-96
2021/06/24 13:34:11;;;;;;;3.10;2.90;;;26.50;75.90;;;;;;4956275;29;20481;-96
2021/06/24 13:36:39;;;;;;;4.37;3.20;;;26.50;75.00;;;;;;4956163;29;20426;-96
2021/06/24 13:39:08;;;;;;;3.83;3.00;;;26.50;75.10;;;;;;4955994;29;20540;-96
2021/06/24 13:41:36;;;;;;;3.03;2.83;;;26.50;75.10;;;;;;4956596;28;20470;-96
2021/06/24 13:44:12;;;;;;;3.83;3.27;;;26.60;75.20;;;;;;4956862;29;20445;-96
2021/06/24 13:46:40;;;;;;;2.93;2.73;;;26.50;75.20;;;;;;4956053;29;20941;-96
2021/06/24 13:49:11;;;;;;;3.67;2.93;;;26.50;75.20;;;;;;4955846;29;20890;-96
2021/06/24 13:51:39;;;;;;;3.53;3.10;;;26.40;75.20;;;;;;4957292;29;20794;-95
2021/06/24 13:54:07;;;;;;;5.50;3.33;;;26.50;75.10;;;;;;4956130;29;20454;-96
2021/06/24 13:57:06;;;;;;;3.10;2.87;;;26.50;75.20;;;;;;4956068;29;20545;-96
2021/06/24 13:59:35;;;;;;;5.17;2.97;;;26.50;75.30;;;;;;4956712;29;20444;-95
2021/06/24 14:02:01;;;;;;;3.47;3.27;;;26.50;75.20;;;;;;4956178;29;20534;-95
2021/06/24 14:04:28;;;;;;;4.07;3.17;;;26.50;75.20;;;;;;4955547;29;20564;-96
2021/06/24 14:06:55;;;;;;;3.50;3.20;;;26.50;75.40;;;;;;4957267;28;20541;-95
2021/06/24 14:09:22;;;;;;;3.73;3.10;;;26.50;75.50;;;;;;4958816;29;20481;-92
2021/06/24 14:11:50;;;;;;;5.60;3.80;;;26.50;75.40;;;;;;4958540;28;20510;-92
2021/06/24 14:14:17;;;;;;;5.00;3.50;;;26.40;76.30;;;;;;4958856;29;20798;-93
2021/06/24 14:16:46;;;;;;;3.90;3.60;;;26.40;75.40;;;;;;4958536;29;20445;-92
2021/06/24 14:19:13;;;;;;;4.50;4.10;;;26.40;75.50;;;;;;4958367;29;20446;-92
2021/06/24 14:21:40;;;;;;;5.10;4.27;;;26.40;75.60;;;;;;4958731;29;20456;-92
2021/06/24 14:24:08;;;;;;;4.30;3.47;;;26.40;75.60;;;;;;4958685;29;20811;-92
2021/06/24 14:26:36;;;;;;;5.60;3.20;;;26.40;75.60;;;;;;4959032;29;20956;-93
2021/06/24 14:29:07;;;;;;;4.77;3.67;;;26.40;75.60;;;;;;4960452;29;20486;-93
2021/06/24 14:31:34;;;;;;;4.47;3.80;;;26.40;75.50;;;;;;4958262;29;20426;-93
2021/06/24 14:34:02;;;;;;;6.43;5.10;;;26.40;75.50;;;;;;4958521;29;20448;-93
2021/06/24 14:36:29;;;;;;;6.40;5.80;;;26.30;75.00;;;;;;4958786;29;20442;-92
2021/06/24 14:38:56;;;;;;;5.10;4.70;;;26.30;74.40;;;;;;4958294;29;20445;-93
2021/06/24 14:41:25;;;;;;;8.10;5.63;;;26.30;74.00;;;;;;4958346;28;20505;-93
2021/06/24 14:43:51;;;;;;;7.17;6.47;;;26.30;73.50;;;;;;4958054;29;20472;-92
2021/06/24 14:46:18;;;;;;;6.10;5.50;;;26.30;73.80;;;;;;4958379;29;20444;-93
2021/06/24 14:48:46;;;;;;;6.13;5.37;;;26.20;74.10;;;;;;4957998;29;20568;-91
2021/06/24 14:51:15;;;;;;;7.40;5.30;;;26.30;74.20;;;;;;4958518;29;20461;-94
2021/06/24 14:53:42;;;;;;;5.37;4.30;;;26.30;74.40;;;;;;4958480;29;20446;-94
2021/06/24 14:56:12;;;;;;;8.77;5.77;;;26.30;74.50;;;;;;4958917;29;20487;-94
2021/06/24 14:58:39;;;;;;;11.43;6.20;;;26.30;74.70;;;;;;4958748;29;20478;-95
2021/06/24 15:01:06;;;;;;;6.60;5.60;;;26.20;74.70;;;;;;4958178;29;20445;-95
2021/06/24 15:03:33;;;;;;;6.33;5.50;;;26.20;74.40;;;;;;4960105;29;20480;-93
2021/06/24 15:05:59;;;;;;;10.13;5.30;;;26.30;74.60;;;;;;4957943;29;20485;-94
2021/06/24 15:08:28;;;;;;;9.07;5.13;;;26.30;74.50;;;;;;4958824;29;20575;-94
2021/06/24 15:10:55;;;;;;;7.03;5.47;;;26.20;74.50;;;;;;4957891;29;20544;-94
2021/06/24 15:13:21;;;;;;;6.03;5.30;;;26.20;74.70;;;;;;4958444;29;20446;-95
2021/06/24 15:15:48;;;;;;;7.87;4.83;;;26.20;75.50;;;;;;4958077;29;20454;-94
2021/06/24 15:18:15;;;;;;;6.97;5.90;;;26.20;74.70;;;;;;4957988;28;20454;-94
2021/06/24 15:20:42;;;;;;;7.43;6.40;;;26.20;74.70;;;;;;4957865;29;20480;-94
2021/06/24 15:23:10;;;;;;;8.00;5.50;;;26.20;74.70;;;;;;4958101;29;20541;-93
2021/06/24 15:25:39;;;;;;;8.70;5.90;;;26.20;74.50;;;;;;4960365;29;20504;-96
2021/06/24 15:28:07;;;;;;;7.57;5.17;;;26.20;74.10;;;;;;4958606;29;20477;-96
2021/06/24 15:30:34;;;;;;;6.07;4.30;;;26.20;74.00;;;;;;4957454;29;20568;-94
2021/06/24 15:33:03;;;;;;;6.40;4.33;;;26.20;74.00;;;;;;4957992;29;20453;-95
2021/06/24 15:35:30;;;;;;;7.00;4.60;;;26.20;73.60;;;;;;4957994;29;20485;-95
2021/06/24 15:37:58;;;;;;;6.07;5.57;;;26.20;74.50;;;;;;4958107;29;20478;-96
2021/06/24 15:40:26;;;;;;;10.00;4.77;;;26.20;73.80;;;;;;4957923;29;20489;-95
2021/06/24 15:42:55;;;;;;;10.23;6.03;;;26.20;73.70;;;;;;4958318;28;20517;-91
2021/06/24 15:45:23;;;;;;;6.07;5.53;;;26.20;74.40;;;;;;4958015;29;20445;-95
2021/06/24 15:47:51;;;;;;;5.80;4.50;;;26.20;73.50;;;;;;4957984;29;20536;-94
2021/06/24 15:50:21;;;;;;;5.90;4.43;;;26.20;73.40;;;;;;4978660;28;20500;-92
2021/06/24 15:52:49;;;;;;;9.47;4.00;;;26.20;73.40;;;;;;4981046;28;20449;-95
2021/06/24 15:55:17;;;;;;;4.27;3.87;;;26.20;73.70;;;;;;4981390;28;20465;-95
2021/06/24 15:57:45;;;;;;;6.97;4.07;;;26.20;73.90;;;;;;4979466;28;20450;-96
2021/06/24 16:00:16;;;;;;;4.87;3.70;;;26.20;74.00;;;;;;4976666;29;20450;-96
2021/06/24 16:02:44;;;;;;;4.23;3.40;;;26.20;74.10;;;;;;4973403;28;20445;-94
2021/06/24 16:05:14;;;;;;;4.13;3.80;;;26.20;74.00;;;;;;4980876;28;20552;-96
2021/06/24 16:07:45;;;;;;;4.13;3.73;;;26.20;74.10;;;;;;4980561;28;20448;-96
2021/06/24 16:10:15;;;;;;;4.77;3.40;;;26.20;74.10;;;;;;4970852;29;20491;-96
2021/06/24 16:12:47;;;;;;;4.63;4.07;;;26.20;74.10;;;;;;4971410;28;20501;-96
2021/06/24 16:15:17;;;;;;;4.13;3.73;;;26.20;74.20;;;;;;4971659;29;20463;-96
2021/06/24 16:17:45;;;;;;;4.33;3.43;;;26.20;74.20;;;;;;4971946;29;20445;-96
2021/06/24 16:20:15;;;;;;;4.13;3.73;;;26.20;74.20;;;;;;4970473;29;20465;-96
2021/06/24 16:22:42;;;;;;;4.63;3.50;;;26.20;74.20;;;;;;4969488;29;20462;-96
2021/06/24 16:25:13;;;;;;;4.80;3.10;;;26.20;74.20;;;;;;4951878;29;20512;-96
2021/06/24 16:27:44;;;;;;;3.70;3.40;;;26.30;74.30;;;;;;4969068;29;20454;-96
2021/06/24 16:30:14;;;;;;;2.77;2.53;;;26.20;74.20;;;;;;4969411;28;20581;-96
2021/06/24 16:32:44;;;;;;;4.00;3.70;;;26.20;74.30;;;;;;4969743;29;20461;-96
2021/06/24 16:35:12;;;;;;;2.80;2.60;;;26.30;74.40;;;;;;4969488;29;20444;-96
2021/06/24 16:37:39;;;;;;;3.50;3.20;;;26.20;74.30;;;;;;4970131;29;20449;-96
2021/06/24 16:40:08;;;;;;;2.97;2.77;;;26.30;74.40;;;;;;4969462;29;20454;-96
2021/06/24 16:42:36;;;;;;;2.97;2.77;;;26.20;74.30;;;;;;4968715;28;20473;-96
2021/06/24 16:45:04;;;;;;;3.33;2.87;;;26.30;74.50;;;;;;4970536;29;20523;-96
2021/06/24 16:47:31;;;;;;;3.23;2.77;;;26.30;74.50;;;;;;4966421;29;20457;-93
2021/06/24 16:50:00;;;;;;;3.60;3.30;;;26.30;74.50;;;;;;4955788;29;20492;-92
2021/06/24 16:52:27;;;;;;;5.50;4.00;;;26.30;75.50;;;;;;4956118;29;20450;-92
2021/06/24 16:54:54;;;;;;;3.30;3.00;;;26.30;74.70;;;;;;4955834;29;20548;-93
2021/06/24 16:57:21;;;;;;;4.50;4.10;;;26.30;74.70;;;;;;4955766;29;20445;-93
2021/06/24 16:59:48;;;;;;;7.07;4.50;;;26.30;74.50;;;;;;4956035;29;20537;-93
2021/06/24 17:02:15;;;;;;;4.70;4.27;;;26.20;73.70;;;;;;4955738;29;20539;-92
2021/06/24 17:04:48;;;;;;;4.30;4.00;;;26.20;73.30;;;;;;4955954;29;20839;-92
2021/06/24 17:07:18;;;;;;;4.80;4.50;;;26.20;73.00;;;;;;4956078;29;20848;-93
2021/06/24 17:09:47;;;;;;;5.03;4.63;;;26.20;72.70;;;;;;4955664;29;20842;-92
2021/06/24 17:12:15;;;;;;;5.40;4.17;;;26.20;72.70;;;;;;4951407;28;20493;-92
2021/06/24 17:14:43;;;;;;;4.37;3.93;;;26.20;72.70;;;;;;4966467;28;20460;-93
2021/06/24 17:17:10;;;;;;;5.93;4.77;;;26.20;72.80;;;;;;4975377;28;20556;-93
2021/06/24 17:19:40;;;;;;;6.20;4.17;;;26.20;73.30;;;;;;4975570;28;20533;-93
2021/06/24 17:22:09;;;;;;;4.53;4.17;;;26.20;73.30;;;;;;4966780;28;20516;-96
2021/06/24 17:24:39;;;;;;;3.60;3.30;;;26.10;73.30;;;;;;4972470;29;20476;-96
